FVCM weather

Cam+Motor Airport
Cam+Motor, Mashonaland West Province, Zimbabwe

Public forecast

Using degrees Celsius for public forecast. Weather courtesy of forecast.io.

METAR (pilot weather report)

Report is more than 2 hours old.

Closest report is Robert Gabriel Mugabe International Airport, 67.3 nm (124.6 km) ENE. Retrieved 2019/05/19 22:00 UTC (3 hours ago):

FVRG 192200Z 13007KT CAVOK 14/08 Q1026 NOSIG

TAF (pilot weather forecast)

Forecast is more than 12 hours old.

Closest forecast is Robert Gabriel Mugabe International Airport, 67.3 nm (124.6 km) ENE. Retrieved 2019/05/19 00:00 UTC (1 day ago):

TAF FVRG 192200Z 2000/2106 10006KT CAVOK